Time;durP1;ratioP1;P1;durP2;ratioP2;P2;SDS_P1;SDS_P2;PMS_P1;PMS_P2;Temp;Humidity;BMP_temperature;BMP_pressure;BME280_temperature;BME280_humidity;BME280_pressure;Samples;Min_cycle;Max_cycle;Signal;HPM_P1;HPM_P2
2023/02/16 00:01:09;;;;;;;20.30;12.90;;;2.30;99.90;;;;;;5033749;28;20317;-59
2023/02/16 00:03:36;;;;;;;24.93;14.17;;;2.20;99.90;;;;;;5034248;28;20210;-59
2023/02/16 00:06:02;;;;;;;23.13;14.10;;;2.20;99.90;;;;;;5033863;28;20613;-61
2023/02/16 00:08:29;;;;;;;18.83;13.57;;;2.20;99.90;;;;;;5034166;28;20210;-59
2023/02/16 00:13:51;;;;;;;18.60;12.90;;;2.30;99.90;;;;;;5020783;28;20206;-60
2023/02/16 00:16:21;;;;;;;18.63;12.50;;;2.30;99.90;;;;;;5033562;28;20709;-60
2023/02/16 00:18:48;;;;;;;21.63;13.70;;;2.30;99.90;;;;;;5034043;28;20560;-59
2023/02/16 00:21:15;;;;;;;23.40;13.10;;;2.30;99.90;;;;;;5033485;28;20226;-60
2023/02/16 00:23:42;;;;;;;18.93;11.73;;;2.20;99.90;;;;;;5033684;28;20275;-59
2023/02/16 00:26:15;;;;;;;21.33;13.17;;;2.20;99.90;;;;;;5033358;28;20222;-59
2023/02/16 00:28:43;;;;;;;18.83;12.70;;;2.30;99.90;;;;;;5034026;28;20252;-60
2023/02/16 00:31:16;;;;;;;18.10;12.53;;;2.20;99.90;;;;;;5033634;28;20207;-60
2023/02/16 00:33:45;;;;;;;19.43;13.70;;;2.20;99.90;;;;;;5033814;28;20721;-60
2023/02/16 00:36:11;;;;;;;20.87;13.70;;;2.00;99.90;;;;;;5033528;28;20230;-60
2023/02/16 00:38:38;;;;;;;19.57;12.80;;;1.90;99.90;;;;;;5033411;28;20327;-58
2023/02/16 00:41:49;;;;;;;20.97;13.80;;;1.70;99.90;;;;;;5032957;28;20721;-59
2023/02/16 00:43:53;;;;;;;24.90;14.00;;;1.70;99.90;;;;;;5033203;28;20279;-58
2023/02/16 00:46:21;;;;;;;19.07;13.47;;;1.60;99.90;;;;;;5031839;28;20327;-58
2023/02/16 00:48:49;;;;;;;18.87;13.70;;;1.60;99.90;;;;;;5033379;28;20202;-58
2023/02/16 00:51:15;;;;;;;20.70;13.57;;;1.60;99.90;;;;;;5032902;28;20206;-59
2023/02/16 00:53:42;;;;;;;21.07;13.53;;;1.70;99.90;;;;;;5033495;28;20247;-59
2023/02/16 00:56:13;;;;;;;24.20;14.43;;;1.80;99.90;;;;;;5032977;28;20226;-59
2023/02/16 00:58:39;;;;;;;20.60;14.43;;;1.80;99.90;;;;;;5033308;28;20236;-60
2023/02/16 01:01:09;;;;;;;20.57;14.83;;;1.80;99.90;;;;;;5032613;28;20242;-59
2023/02/16 01:03:37;;;;;;;22.73;14.50;;;1.80;99.90;;;;;;5032935;28;20307;-59
2023/02/16 01:11:33;;;;;;;20.07;13.53;;;1.80;99.90;;;;;;5032879;28;20205;-60
2023/02/16 01:14:00;;;;;;;19.70;12.37;;;1.70;99.90;;;;;;5032734;28;20206;-59
2023/02/16 01:16:35;;;;;;;21.23;12.33;;;1.70;99.90;;;;;;5032452;28;20715;-58
2023/02/16 01:19:02;;;;;;;18.40;12.23;;;1.60;99.90;;;;;;5032876;28;20205;-57
2023/02/16 01:21:30;;;;;;;17.80;12.10;;;1.60;99.90;;;;;;5032623;28;20257;-59
2023/02/16 01:23:56;;;;;;;16.30;11.63;;;1.60;99.90;;;;;;5032529;28;20206;-59
2023/02/16 01:26:23;;;;;;;16.27;12.07;;;1.60;99.90;;;;;;5032418;28;20249;-60
2023/02/16 01:28:50;;;;;;;19.03;12.77;;;1.60;99.90;;;;;;5032497;28;20206;-61
2023/02/16 01:31:17;;;;;;;15.27;11.67;;;1.60;99.90;;;;;;5032372;28;20206;-59
2023/02/16 01:33:44;;;;;;;17.10;11.77;;;1.50;99.90;;;;;;5032394;28;20206;-58
2023/02/16 01:36:22;;;;;;;17.90;12.33;;;1.50;99.90;;;;;;5032065;28;20300;-59
2023/02/16 01:38:50;;;;;;;17.37;12.37;;;1.50;99.90;;;;;;5032501;28;20206;-60
2023/02/16 01:41:24;;;;;;;18.67;12.20;;;1.50;99.90;;;;;;5032341;28;20740;-60
2023/02/16 01:43:56;;;;;;;18.23;12.40;;;1.40;99.90;;;;;;5032443;28;20210;-60
2023/02/16 01:46:33;;;;;;;18.73;12.13;;;1.50;99.90;;;;;;5032044;28;20234;-60
2023/02/16 01:48:59;;;;;;;19.97;11.73;;;1.40;99.90;;;;;;5032308;28;20206;-59
2023/02/16 01:51:29;;;;;;;18.33;12.43;;;1.40;99.90;;;;;;5031811;28;20230;-60
2023/02/16 01:54:06;;;;;;;21.57;12.53;;;1.40;99.90;;;;;;5032203;28;20233;-59
2023/02/16 01:56:39;;;;;;;22.30;12.97;;;1.70;99.90;;;;;;5031999;28;20233;-59
2023/02/16 01:59:16;;;;;;;18.30;12.33;;;1.50;99.90;;;;;;5031222;28;20249;-59
2023/02/16 02:01:52;;;;;;;18.57;12.63;;;1.50;99.90;;;;;;5031854;28;20238;-59
2023/02/16 02:07:15;;;;;;;21.13;13.07;;;1.50;99.90;;;;;;5031511;28;20264;-59
2023/02/16 02:09:49;;;;;;;18.17;12.97;;;1.40;99.90;;;;;;5031561;28;20276;-60
2023/02/16 02:12:28;;;;;;;18.57;12.03;;;1.40;99.90;;;;;;5031709;28;20210;-58
2023/02/16 02:14:55;;;;;;;19.93;11.97;;;1.40;99.90;;;;;;5031401;28;20246;-60
2023/02/16 02:17:22;;;;;;;19.47;11.97;;;1.40;99.90;;;;;;5031552;28;20292;-59
2023/02/16 02:19:59;;;;;;;20.40;10.87;;;1.40;99.90;;;;;;5031048;28;20260;-59
2023/02/16 02:26:17;;;;;;;16.13;10.90;;;1.40;99.90;;;;;;5031243;28;20696;-59
2023/02/16 02:28:53;;;;;;;15.47;10.60;;;1.40;99.90;;;;;;5031818;28;20210;-60
2023/02/16 02:31:31;;;;;;;17.53;12.00;;;1.40;99.90;;;;;;5030941;28;20267;-59
2023/02/16 02:34:10;;;;;;;15.90;11.13;;;1.40;99.90;;;;;;5031522;28;20214;-59
2023/02/16 02:36:41;;;;;;;14.93;10.27;;;1.50;99.90;;;;;;5031217;28;20230;-59
2023/02/16 02:39:20;;;;;;;16.67;10.77;;;1.50;99.90;;;;;;5031676;28;20581;-59
2023/02/16 02:42:05;;;;;;;15.73;10.70;;;1.50;99.90;;;;;;5031468;28;20226;-59
2023/02/16 02:44:37;;;;;;;16.60;10.67;;;1.60;99.90;;;;;;5031118;28;20221;-60
2023/02/16 02:47:04;;;;;;;15.63;10.63;;;1.60;99.90;;;;;;5055733;22;20254;-65
2023/02/16 02:49:31;;;;;;;13.97;10.23;;;1.60;99.90;;;;;;5031765;28;20198;-65
2023/02/16 02:51:58;;;;;;;13.37;9.80;;;1.60;99.90;;;;;;5032527;28;20198;-65
2023/02/16 03:02:58;;;;;;;15.83;10.00;;;1.50;99.90;;;;;;5031607;28;20214;-66
2023/02/16 03:05:27;;;;;;;13.27;9.53;;;1.30;99.90;;;;;;5031556;28;20667;-65
2023/02/16 03:07:56;;;;;;;13.70;9.97;;;1.10;99.90;;;;;;5031621;28;20238;-65
2023/02/16 03:13:13;;;;;;;14.57;10.23;;;1.10;99.90;;;;;;5031454;28;20267;-65
2023/02/16 03:15:44;;;;;;;15.87;10.30;;;1.10;99.90;;;;;;5031467;28;20240;-65
2023/02/16 03:29:18;;;;;;;15.07;10.13;;;1.00;99.90;;;;;;5031101;28;20201;-65
2023/02/16 03:31:47;;;;;;;14.97;10.63;;;1.00;99.90;;;;;;5031626;28;20700;-65
2023/02/16 03:34:15;;;;;;;13.87;9.80;;;1.00;99.90;;;;;;5031483;28;20245;-65
2023/02/16 03:36:43;;;;;;;13.70;9.60;;;0.90;99.90;;;;;;5030907;28;20226;-66
2023/02/16 03:39:11;;;;;;;13.47;9.60;;;1.00;99.90;;;;;;5031155;28;20213;-65
2023/02/16 03:41:40;;;;;;;14.37;9.87;;;1.00;99.90;;;;;;5030898;28;20626;-66
2023/02/16 03:44:07;;;;;;;15.70;10.37;;;1.00;99.90;;;;;;5030920;28;20215;-66
2023/02/16 03:46:34;;;;;;;13.37;9.60;;;1.10;99.90;;;;;;5030772;28;20237;-65
2023/02/16 03:49:02;;;;;;;15.47;9.80;;;1.10;99.90;;;;;;5031074;28;20206;-66
2023/02/16 03:51:29;;;;;;;15.17;9.90;;;1.20;99.90;;;;;;5030767;28;20198;-65
2023/02/16 03:53:55;;;;;;;15.03;10.80;;;1.20;99.90;;;;;;5031377;28;20210;-65
2023/02/16 03:56:22;;;;;;;15.07;10.00;;;1.10;99.90;;;;;;5030878;28;20226;-65
2023/02/16 03:58:49;;;;;;;13.63;10.40;;;1.00;99.90;;;;;;5030970;28;20210;-65
2023/02/16 04:01:16;;;;;;;14.93;10.53;;;1.10;99.90;;;;;;5030814;28;20226;-65
2023/02/16 04:03:42;;;;;;;13.70;9.67;;;1.20;99.90;;;;;;5030931;28;20202;-65
2023/02/16 04:06:11;;;;;;;13.87;10.03;;;1.20;99.90;;;;;;5030743;28;20284;-65
2023/02/16 04:08:37;;;;;;;14.50;10.10;;;1.30;99.90;;;;;;5030474;28;20245;-65
2023/02/16 04:12:34;;;;;;;14.17;10.17;;;1.40;99.90;;;;;;5030462;28;20260;-65
2023/02/16 04:13:51;;;;;;;14.10;9.80;;;1.50;99.90;;;;;;5030385;28;20202;-67
2023/02/16 04:16:18;;;;;;;16.33;9.40;;;1.50;99.90;;;;;;5030738;28;20793;-66
2023/02/16 04:18:45;;;;;;;16.80;10.57;;;1.60;99.90;;;;;;5030721;28;20202;-66
2023/02/16 04:21:13;;;;;;;15.83;11.47;;;1.60;99.90;;;;;;5031654;28;20229;-65
2023/02/16 04:23:40;;;;;;;17.10;10.50;;;1.50;99.90;;;;;;5034126;28;20213;-65
2023/02/16 04:26:06;;;;;;;15.00;11.00;;;1.60;99.90;;;;;;5034118;28;20717;-65
2023/02/16 04:28:33;;;;;;;13.03;9.87;;;1.60;99.90;;;;;;5034177;28;20314;-65
2023/02/16 04:31:00;;;;;;;17.67;10.87;;;1.60;99.90;;;;;;5034200;28;20202;-66
2023/02/16 04:33:26;;;;;;;16.30;11.27;;;1.60;99.90;;;;;;5034132;28;20253;-66
2023/02/16 04:35:53;;;;;;;15.57;11.07;;;1.60;99.90;;;;;;5034205;28;20231;-65
2023/02/16 04:38:21;;;;;;;15.63;10.40;;;1.60;99.90;;;;;;5033764;28;20564;-65
2023/02/16 04:40:48;;;;;;;15.77;10.97;;;1.50;99.90;;;;;;5033903;28;20295;-65
2023/02/16 04:43:14;;;;;;;15.73;9.63;;;1.50;99.90;;;;;;5033792;28;20206;-65
2023/02/16 04:45:41;;;;;;;16.67;10.10;;;1.30;99.90;;;;;;5033656;28;20206;-67
2023/02/16 04:48:08;;;;;;;13.87;10.30;;;1.10;99.90;;;;;;5033848;28;20316;-65
2023/02/16 04:50:34;;;;;;;14.97;9.87;;;1.00;99.90;;;;;;5034168;28;20218;-65
2023/02/16 04:53:01;;;;;;;13.73;9.70;;;1.10;99.90;;;;;;5034334;28;20229;-65
2023/02/16 04:55:29;;;;;;;15.57;10.73;;;1.10;99.90;;;;;;5033855;28;20203;-65
2023/02/16 04:57:56;;;;;;;17.37;10.03;;;1.20;99.90;;;;;;5033742;28;20206;-66
2023/02/16 05:00:23;;;;;;;16.17;10.03;;;1.20;99.90;;;;;;5034001;28;20217;-65
2023/02/16 05:02:50;;;;;;;14.03;9.57;;;1.30;99.90;;;;;;5034004;28;20237;-64
2023/02/16 05:05:17;;;;;;;14.27;9.20;;;1.30;99.90;;;;;;5033748;28;20214;-64
2023/02/16 05:07:43;;;;;;;13.90;9.90;;;1.30;99.90;;;;;;5033362;28;20299;-64
2023/02/16 05:10:10;;;;;;;13.13;9.30;;;1.30;99.90;;;;;;5033739;28;20206;-65
2023/02/16 05:15:22;;;;;;;14.90;9.67;;;1.30;99.90;;;;;;5033616;28;20212;-64
2023/02/16 05:17:49;;;;;;;13.63;9.77;;;1.30;99.90;;;;;;5033352;28;20582;-65
2023/02/16 05:20:16;;;;;;;18.37;9.87;;;1.30;99.90;;;;;;5032866;28;20696;-65
2023/02/16 05:22:44;;;;;;;11.77;9.17;;;1.20;99.90;;;;;;5033444;28;20226;-64
2023/02/16 05:25:11;;;;;;;13.13;9.73;;;1.20;99.90;;;;;;5033208;28;20206;-64
2023/02/16 05:27:39;;;;;;;14.30;9.50;;;1.20;99.90;;;;;;5033499;28;20233;-64
2023/02/16 05:30:07;;;;;;;13.50;9.30;;;1.20;99.90;;;;;;5032974;28;20240;-64
2023/02/16 05:32:34;;;;;;;13.63;10.20;;;1.30;99.90;;;;;;5032224;28;20210;-64
2023/02/16 05:35:01;;;;;;;19.03;12.87;;;1.30;99.90;;;;;;5033034;28;20214;-67
2023/02/16 05:37:27;;;;;;;14.37;9.90;;;1.30;99.90;;;;;;5032767;28;20233;-64
2023/02/16 05:39:54;;;;;;;13.63;9.90;;;1.40;99.90;;;;;;5033039;28;20217;-64
2023/02/16 05:42:21;;;;;;;14.03;10.40;;;1.40;99.90;;;;;;5034332;28;20520;-65
2023/02/16 05:44:49;;;;;;;11.40;9.40;;;1.50;99.90;;;;;;5035000;28;20214;-65
2023/02/16 05:47:16;;;;;;;15.20;10.40;;;1.50;99.90;;;;;;5033507;28;20261;-65
2023/02/16 05:49:42;;;;;;;16.57;9.90;;;1.50;99.90;;;;;;5033314;28;20206;-65
2023/02/16 05:52:09;;;;;;;15.83;10.37;;;1.50;99.90;;;;;;5032995;28;20213;-67
2023/02/16 05:54:36;;;;;;;15.23;11.27;;;1.40;99.90;;;;;;5032709;28;20207;-65
2023/02/16 05:57:03;;;;;;;14.47;10.30;;;1.30;99.90;;;;;;5032109;28;20276;-64
2023/02/16 05:59:29;;;;;;;28.73;16.20;;;1.30;99.90;;;;;;5032287;28;20380;-65
2023/02/16 06:01:57;;;;;;;25.77;16.50;;;1.30;99.90;;;;;;5032048;28;20226;-65
2023/02/16 06:04:24;;;;;;;18.70;11.70;;;1.30;99.90;;;;;;5032340;28;20256;-66
2023/02/16 06:06:51;;;;;;;16.30;11.13;;;1.30;99.90;;;;;;5032301;28;20226;-65
2023/02/16 06:09:18;;;;;;;19.43;11.43;;;1.30;99.90;;;;;;5032311;28;20206;-65
2023/02/16 06:11:44;;;;;;;18.40;11.40;;;1.40;99.90;;;;;;5031566;28;20278;-65
2023/02/16 06:14:14;;;;;;;18.30;12.47;;;1.40;99.90;;;;;;5031855;28;20207;-65
2023/02/16 06:16:43;;;;;;;20.70;12.67;;;1.50;99.90;;;;;;5032579;28;20604;-65
2023/02/16 06:19:12;;;;;;;15.63;10.60;;;1.50;99.90;;;;;;5031985;28;20733;-65
2023/02/16 06:21:39;;;;;;;13.60;10.20;;;1.60;99.90;;;;;;5032455;28;20226;-65
2023/02/16 06:24:07;;;;;;;36.10;22.73;;;1.60;99.90;;;;;;5032325;28;20211;-65
2023/02/16 06:26:34;;;;;;;23.67;14.33;;;1.60;99.90;;;;;;5032312;28;20230;-65
2023/02/16 06:29:01;;;;;;;18.83;12.90;;;1.60;99.90;;;;;;5032729;28;20764;-65
2023/02/16 06:31:28;;;;;;;16.30;11.27;;;1.60;99.90;;;;;;5031790;28;20627;-65
2023/02/16 06:33:55;;;;;;;18.50;11.80;;;1.60;99.90;;;;;;5031730;28;20213;-65
2023/02/16 06:36:24;;;;;;;16.70;11.80;;;1.60;99.90;;;;;;5032108;28;20366;-66
2023/02/16 06:38:51;;;;;;;16.40;11.23;;;1.60;99.90;;;;;;5032101;28;20209;-66
2023/02/16 06:41:29;;;;;;;16.07;11.10;;;1.70;99.90;;;;;;5032016;28;20259;-67
2023/02/16 06:43:57;;;;;;;13.73;11.20;;;1.70;99.90;;;;;;5031903;28;20206;-66
2023/02/16 06:46:24;;;;;;;17.00;10.87;;;1.70;99.90;;;;;;5032413;28;20717;-66
2023/02/16 06:48:51;;;;;;;17.10;10.00;;;1.60;99.90;;;;;;5032366;28;20234;-66
2023/02/16 06:51:18;;;;;;;12.03;9.53;;;1.60;99.90;;;;;;5031997;28;20207;-66
2023/02/16 06:53:46;;;;;;;12.70;9.70;;;1.70;99.90;;;;;;5031845;28;20704;-65
2023/02/16 06:56:13;;;;;;;21.03;10.57;;;1.70;99.90;;;;;;5031912;28;20226;-66
2023/02/16 06:58:40;;;;;;;16.13;9.50;;;1.80;99.90;;;;;;5031891;28;20610;-66
2023/02/16 07:01:07;;;;;;;14.23;9.70;;;1.90;99.90;;;;;;5031282;28;20233;-66
2023/02/16 07:03:34;;;;;;;15.57;9.83;;;2.00;99.90;;;;;;5031953;28;20207;-66
2023/02/16 07:06:01;;;;;;;13.80;9.63;;;2.00;99.90;;;;;;5030819;28;20590;-65
2023/02/16 07:08:27;;;;;;;18.40;10.03;;;2.00;99.90;;;;;;5030989;28;20208;-66
2023/02/16 07:10:55;;;;;;;14.70;10.33;;;1.90;99.90;;;;;;5031139;28;20260;-66
2023/02/16 07:13:22;;;;;;;19.37;10.30;;;2.00;99.90;;;;;;5031284;28;20202;-66
2023/02/16 07:15:49;;;;;;;17.43;10.17;;;2.20;99.90;;;;;;5030889;28;20533;-66
2023/02/16 07:18:16;;;;;;;16.60;11.40;;;2.30;99.90;;;;;;5031310;28;20242;-66
2023/02/16 07:20:43;;;;;;;16.03;10.80;;;2.60;99.90;;;;;;5030890;28;20202;-66
2023/02/16 07:23:09;;;;;;;14.00;9.67;;;2.90;99.90;;;;;;5031284;28;20295;-65
2023/02/16 07:25:36;;;;;;;14.50;9.43;;;3.50;99.90;;;;;;5031080;28;20673;-66
2023/02/16 07:28:04;;;;;;;16.17;10.37;;;3.90;99.90;;;;;;5032196;28;20229;-66
2023/02/16 07:30:31;;;;;;;13.17;10.33;;;4.30;99.90;;;;;;5032600;28;20206;-66
2023/02/16 07:32:58;;;;;;;16.33;10.93;;;4.40;99.90;;;;;;5031211;28;20206;-65
2023/02/16 07:35:25;;;;;;;14.17;9.53;;;4.30;99.90;;;;;;5030649;28;20285;-66
2023/02/16 07:37:52;;;;;;;13.17;9.70;;;4.10;99.90;;;;;;5030878;28;20230;-65
2023/02/16 07:40:19;;;;;;;13.87;9.67;;;3.90;99.90;;;;;;5030805;28;20206;-65
2023/02/16 07:42:45;;;;;;;15.63;9.80;;;3.60;99.90;;;;;;5030819;28;20317;-66
2023/02/16 07:45:14;;;;;;;15.10;10.50;;;3.60;99.90;;;;;;5030705;28;20213;-67
2023/02/16 07:47:41;;;;;;;17.03;9.80;;;3.50;99.90;;;;;;5030522;28;20237;-66
2023/02/16 07:50:08;;;;;;;12.47;9.13;;;3.50;99.90;;;;;;5030687;28;20657;-66
2023/02/16 07:52:35;;;;;;;16.50;10.10;;;3.50;99.90;;;;;;5030782;28;20647;-65
2023/02/16 07:55:02;;;;;;;15.37;10.07;;;3.60;99.90;;;;;;5030873;28;20213;-66
2023/02/16 07:57:29;;;;;;;15.90;9.87;;;3.60;99.90;;;;;;5034296;28;20280;-66
2023/02/16 07:59:56;;;;;;;12.20;8.77;;;3.50;99.90;;;;;;5034652;28;20210;-66
2023/02/16 08:02:26;;;;;;;14.70;9.87;;;3.60;99.90;;;;;;5034884;28;20631;-65
2023/02/16 08:04:52;;;;;;;15.47;10.20;;;3.70;99.90;;;;;;5036626;28;20500;-66
2023/02/16 08:07:20;;;;;;;14.23;9.87;;;3.90;99.90;;;;;;5035737;28;20230;-65
2023/02/16 08:09:47;;;;;;;16.97;11.07;;;4.00;99.90;;;;;;5035626;28;20217;-66
2023/02/16 08:12:15;;;;;;;15.93;10.67;;;4.20;99.90;;;;;;5035674;28;20202;-68
2023/02/16 08:14:42;;;;;;;14.67;10.37;;;4.30;99.90;;;;;;5038143;28;20210;-65
2023/02/16 08:17:09;;;;;;;17.77;11.37;;;4.50;99.90;;;;;;5038707;28;20600;-68
2023/02/16 08:19:37;;;;;;;18.80;11.13;;;4.60;99.90;;;;;;5040987;28;20210;-68
2023/02/16 08:22:04;;;;;;;14.80;10.53;;;4.70;99.90;;;;;;5041473;28;20226;-66
2023/02/16 08:24:32;;;;;;;16.27;10.17;;;4.80;99.90;;;;;;5040446;28;20202;-66
2023/02/16 08:27:00;;;;;;;29.80;21.53;;;5.00;99.90;;;;;;5036198;28;20238;-67
2023/02/16 08:29:26;;;;;;;15.47;10.57;;;5.00;99.90;;;;;;5035249;28;20218;-66
2023/02/16 08:31:55;;;;;;;17.83;10.33;;;5.20;99.90;;;;;;5033899;28;20282;-66
2023/02/16 08:34:23;;;;;;;16.83;10.53;;;5.30;99.90;;;;;;5034262;28;20237;-66
2023/02/16 08:36:55;;;;;;;18.07;9.70;;;5.40;99.90;;;;;;5034312;28;20233;-66
2023/02/16 08:39:24;;;;;;;17.27;10.97;;;5.60;99.90;;;;;;5034119;28;20336;-65
2023/02/16 08:41:51;;;;;;;19.57;11.97;;;5.80;99.90;;;;;;5033754;28;20210;-65
2023/02/16 08:44:20;;;;;;;17.67;12.47;;;5.90;99.90;;;;;;5033625;28;20210;-66
2023/02/16 08:46:50;;;;;;;17.33;12.07;;;6.00;99.90;;;;;;5054315;22;20233;-58
2023/02/16 08:49:18;;;;;;;21.73;13.33;;;6.10;99.90;;;;;;5053387;28;20201;-57
2023/02/16 08:51:47;;;;;;;21.33;12.93;;;6.20;99.90;;;;;;5053183;28;20296;-58
2023/02/16 08:54:19;;;;;;;16.37;12.33;;;6.40;99.90;;;;;;5053120;28;20206;-57
2023/02/16 08:56:48;;;;;;;16.40;11.17;;;6.60;99.90;;;;;;5052734;28;20230;-59
2023/02/16 08:59:16;;;;;;;14.87;10.47;;;6.80;99.90;;;;;;5052958;28;20201;-58
2023/02/16 09:01:43;;;;;;;16.57;10.77;;;6.90;99.90;;;;;;5052831;28;20209;-57
2023/02/16 09:04:10;;;;;;;14.27;9.87;;;7.10;99.90;;;;;;5053048;28;20273;-58
2023/02/16 09:06:38;;;;;;;11.00;8.90;;;7.30;99.90;;;;;;5052390;28;20696;-58
2023/02/16 09:09:07;;;;;;;13.17;9.60;;;7.40;99.90;;;;;;5051645;28;20286;-59
2023/02/16 09:11:36;;;;;;;15.23;9.13;;;7.60;99.90;;;;;;5052298;28;20213;-57
2023/02/16 09:14:03;;;;;;;12.00;8.77;;;7.70;99.90;;;;;;5052767;28;20259;-57
2023/02/16 09:16:32;;;;;;;15.90;9.03;;;7.80;99.90;;;;;;5052584;28;20237;-58
2023/02/16 09:19:01;;;;;;;14.53;9.27;;;7.90;99.90;;;;;;5052616;28;20380;-58
2023/02/16 09:21:31;;;;;;;13.77;9.43;;;8.10;99.90;;;;;;5052443;28;20317;-57
2023/02/16 09:23:59;;;;;;;12.53;9.27;;;8.30;99.90;;;;;;5052726;28;20233;-58
2023/02/16 09:26:28;;;;;;;12.60;8.57;;;8.60;99.90;;;;;;5052541;28;20226;-59
2023/02/16 09:28:56;;;;;;;15.47;10.00;;;8.70;99.90;;;;;;5052743;28;20240;-58
2023/02/16 09:31:26;;;;;;;13.80;9.47;;;8.90;99.90;;;;;;5052198;28;20592;-57
2023/02/16 09:33:55;;;;;;;10.93;9.10;;;9.10;99.90;;;;;;5052383;28;20284;-57
2023/02/16 09:36:22;;;;;;;12.63;9.63;;;9.20;99.90;;;;;;5052343;28;20225;-59
2023/02/16 09:38:49;;;;;;;12.93;9.03;;;9.50;99.90;;;;;;5052606;28;20221;-57
2023/02/16 09:41:25;;;;;;;16.43;9.13;;;9.70;99.90;;;;;;5052047;28;20215;-58
2023/02/16 09:43:58;;;;;;;12.13;9.47;;;9.90;99.90;;;;;;5052083;28;20716;-58
2023/02/16 09:46:26;;;;;;;15.13;9.10;;;10.10;99.90;;;;;;5052314;28;20716;-58
2023/02/16 09:48:53;;;;;;;12.27;8.60;;;10.30;99.90;;;;;;5052217;28;20213;-58
2023/02/16 09:51:23;;;;;;;15.30;10.00;;;10.40;99.90;;;;;;5052094;28;20233;-59
2023/02/16 09:53:55;;;;;;;14.03;9.20;;;10.60;99.90;;;;;;5052432;28;20202;-58
2023/02/16 09:56:29;;;;;;;11.27;8.20;;;10.80;99.90;;;;;;5051928;28;20591;-60
2023/02/16 09:59:02;;;;;;;12.07;7.77;;;11.00;99.90;;;;;;5051673;28;20205;-59
2023/02/16 10:01:35;;;;;;;10.50;7.73;;;11.10;99.90;;;;;;5051885;28;20205;-58
2023/02/16 10:04:20;;;;;;;10.17;7.63;;;11.30;99.90;;;;;;5052129;28;20287;-58
2023/02/16 10:06:57;;;;;;;11.50;7.03;;;11.40;99.90;;;;;;5051857;28;20225;-59
2023/02/16 10:09:28;;;;;;;11.67;7.70;;;11.50;99.90;;;;;;5047445;28;20715;-58
2023/02/16 10:12:02;;;;;;;10.20;7.37;;;11.60;99.90;;;;;;5050797;28;20724;-63
2023/02/16 10:14:33;;;;;;;11.03;7.43;;;11.80;99.90;;;;;;5050790;28;20209;-67
2023/02/16 10:17:07;;;;;;;11.13;6.90;;;11.90;99.90;;;;;;5049730;28;20374;-68
2023/02/16 10:19:38;;;;;;;10.20;7.37;;;12.00;99.90;;;;;;5044284;28;20585;-62
2023/02/16 10:22:12;;;;;;;14.77;7.33;;;12.20;99.90;;;;;;5048608;28;20236;-64
2023/02/16 10:24:48;;;;;;;16.73;12.13;;;12.40;99.90;;;;;;5049966;28;20292;-63
2023/02/16 10:27:16;;;;;;;11.47;7.70;;;12.40;99.90;;;;;;5050711;28;20229;-62
2023/02/16 10:29:44;;;;;;;9.30;7.17;;;12.60;99.90;;;;;;5050245;28;20284;-61
2023/02/16 10:32:19;;;;;;;12.60;7.00;;;12.80;99.90;;;;;;5050311;28;20212;-63
2023/02/16 10:34:50;;;;;;;13.63;7.23;;;12.90;99.90;;;;;;5050462;28;20224;-60
2023/02/16 10:37:31;;;;;;;10.33;7.17;;;12.80;99.90;;;;;;5050350;28;20225;-63
2023/02/16 10:40:17;;;;;;;10.50;6.90;;;12.90;99.90;;;;;;5050649;28;20254;-65
2023/02/16 10:42:50;;;;;;;11.43;8.07;;;13.10;99.90;;;;;;5050380;28;20588;-64
2023/02/16 10:45:27;;;;;;;12.93;7.93;;;13.10;99.90;;;;;;5050817;28;20628;-64
2023/02/16 10:47:54;;;;;;;12.13;6.77;;;13.30;99.90;;;;;;5050484;28;20319;-62
2023/02/16 10:50:26;;;;;;;10.27;7.50;;;13.40;99.90;;;;;;5050609;28;20240;-62
2023/02/16 10:52:57;;;;;;;10.80;6.87;;;13.50;99.90;;;;;;5052045;28;20235;-62
2023/02/16 10:55:24;;;;;;;9.60;6.90;;;13.40;99.90;;;;;;5051570;28;20212;-62
2023/02/16 10:57:55;;;;;;;10.03;7.17;;;13.40;99.90;;;;;;5051984;28;20229;-66
2023/02/16 11:00:29;;;;;;;10.23;7.20;;;13.50;99.90;;;;;;5052501;28;20553;-59
2023/02/16 11:02:56;;;;;;;9.03;6.57;;;13.70;99.90;;;;;;5052421;28;20221;-58
2023/02/16 11:05:32;;;;;;;8.53;6.33;;;13.90;99.90;;;;;;5052147;28;20289;-58
2023/02/16 11:08:01;;;;;;;11.40;6.77;;;14.00;99.90;;;;;;5051993;28;20221;-58
2023/02/16 11:10:38;;;;;;;11.60;7.23;;;14.10;99.90;;;;;;5051873;28;20738;-58
2023/02/16 11:13:06;;;;;;;12.43;7.10;;;14.20;99.90;;;;;;5052118;28;20279;-59
2023/02/16 11:15:37;;;;;;;12.27;7.23;;;14.40;99.90;;;;;;5052301;28;20638;-59
2023/02/16 11:18:08;;;;;;;11.87;7.13;;;14.60;99.90;;;;;;5052038;28;20236;-60
2023/02/16 11:20:50;;;;;;;12.03;6.63;;;14.50;99.90;;;;;;5052140;28;20212;-58
2023/02/16 11:23:23;;;;;;;11.60;6.90;;;14.50;99.90;;;;;;5052418;28;20689;-58
2023/02/16 11:25:58;;;;;;;10.97;6.60;;;14.60;99.90;;;;;;5052921;28;20210;-58
2023/02/16 11:28:28;;;;;;;7.87;5.70;;;14.80;99.90;;;;;;5052257;28;20205;-59
2023/02/16 11:31:03;;;;;;;10.57;6.50;;;15.00;99.90;;;;;;5053266;28;20251;-59
2023/02/16 11:33:30;;;;;;;9.07;6.20;;;14.90;99.80;;;;;;5056510;28;20640;-59
2023/02/16 11:35:57;;;;;;;9.17;6.43;;;15.10;99.50;;;;;;5056493;28;20661;-59
2023/02/16 11:38:30;;;;;;;9.37;7.43;;;15.20;98.70;;;;;;5056452;28;20216;-59
2023/02/16 11:40:58;;;;;;;10.53;6.10;;;15.30;98.50;;;;;;5056161;28;20206;-59
2023/02/16 11:43:27;;;;;;;12.00;6.93;;;15.40;97.10;;;;;;5056360;28;20229;-59
2023/02/16 11:46:01;;;;;;;13.17;5.43;;;15.50;97.40;;;;;;5056683;28;20577;-59
2023/02/16 11:48:31;;;;;;;7.60;5.90;;;15.40;95.90;;;;;;5056365;28;20255;-59
2023/02/16 11:51:01;;;;;;;11.20;6.13;;;15.40;95.90;;;;;;5056209;28;20750;-59
2023/02/16 11:53:31;;;;;;;9.77;5.47;;;15.50;96.10;;;;;;5056489;28;20623;-59
2023/02/16 11:56:23;;;;;;;11.60;6.43;;;15.60;96.00;;;;;;5055858;28;20217;-59
2023/02/16 11:59:05;;;;;;;9.07;5.63;;;15.70;95.30;;;;;;5055976;28;20205;-59
2023/02/16 12:01:44;;;;;;;11.30;6.13;;;15.80;95.50;;;;;;5056159;28;20684;-59
2023/02/16 12:04:25;;;;;;;8.33;5.70;;;15.90;95.10;;;;;;5055883;28;20602;-58
2023/02/16 12:07:05;;;;;;;9.30;6.30;;;16.00;94.60;;;;;;5056596;28;20221;-59
2023/02/16 12:09:40;;;;;;;8.17;6.07;;;16.00;94.70;;;;;;5056441;28;20259;-59
2023/02/16 12:12:16;;;;;;;12.43;5.80;;;16.20;94.50;;;;;;5055405;28;20346;-59
2023/02/16 12:14:58;;;;;;;10.83;6.87;;;16.30;94.40;;;;;;5055453;28;20680;-59
2023/02/16 12:17:41;;;;;;;11.70;5.72;;;16.50;93.60;;;;;;5055608;28;20225;-58
2023/02/16 12:20:22;;;;;;;11.97;7.00;;;16.60;92.60;;;;;;5055245;28;20205;-59
2023/02/16 12:22:55;;;;;;;8.40;5.68;;;16.50;92.70;;;;;;5055525;28;20267;-58
2023/02/16 12:25:33;;;;;;;9.50;6.03;;;16.50;92.70;;;;;;5055230;28;20208;-58
2023/02/16 12:28:12;;;;;;;10.23;6.40;;;16.70;92.20;;;;;;5055302;28;20221;-58
2023/02/16 12:30:52;;;;;;;9.85;5.82;;;16.90;92.00;;;;;;5054867;28;20652;-58
2023/02/16 12:33:29;;;;;;;13.10;5.88;;;17.10;91.40;;;;;;5054843;28;20205;-58
2023/02/16 12:36:11;;;;;;;9.43;5.63;;;17.10;91.40;;;;;;5054994;28;20218;-58
2023/02/16 12:38:49;;;;;;;7.72;5.47;;;17.10;91.10;;;;;;5054957;28;20212;-58
2023/02/16 12:41:28;;;;;;;9.77;6.80;;;17.00;91.10;;;;;;5054465;28;20239;-58
2023/02/16 12:44:00;;;;;;;9.98;5.95;;;16.80;91.20;;;;;;5054536;28;20222;-58
2023/02/16 12:46:32;;;;;;;8.23;5.78;;;16.90;91.00;;;;;;5054672;28;20249;-58
2023/02/16 12:49:06;;;;;;;8.77;6.07;;;17.00;90.80;;;;;;5054744;28;20688;-58
2023/02/16 12:51:37;;;;;;;9.18;5.88;;;17.10;90.90;;;;;;5054389;28;20240;-58
2023/02/16 12:54:09;;;;;;;9.27;6.50;;;17.10;90.60;;;;;;5054461;28;20198;-58
2023/02/16 12:56:40;;;;;;;12.13;6.75;;;17.10;90.70;;;;;;5054701;28;20237;-59
2023/02/16 12:59:18;;;;;;;10.57;6.20;;;17.10;90.60;;;;;;5054871;28;20201;-58
2023/02/16 13:01:47;;;;;;;10.23;6.95;;;16.90;90.60;;;;;;5054416;28;20206;-58
2023/02/16 13:04:21;;;;;;;11.05;6.75;;;16.80;90.80;;;;;;5054291;28;20230;-58
2023/02/16 13:06:56;;;;;;;10.73;6.95;;;16.70;90.90;;;;;;5054271;28;20256;-59
2023/02/16 13:09:33;;;;;;;11.50;7.22;;;16.80;90.80;;;;;;5054252;28;20209;-58
2023/02/16 13:12:06;;;;;;;10.35;7.15;;;16.90;90.90;;;;;;5053918;28;20232;-58
2023/02/16 13:14:36;;;;;;;11.95;6.72;;;17.00;91.00;;;;;;5054114;28;20205;-60
2023/02/16 13:17:10;;;;;;;9.68;6.78;;;17.10;90.30;;;;;;5053705;28;20606;-58
2023/02/16 13:19:38;;;;;;;9.48;6.53;;;17.20;90.60;;;;;;5054038;28;20283;-58
2023/02/16 13:22:30;;;;;;;12.73;6.57;;;17.30;90.40;;;;;;5053913;28;20217;-58
2023/02/16 13:25:24;;;;;;;11.18;6.68;;;17.30;89.80;;;;;;5040930;28;20278;-57
2023/02/16 13:28:00;;;;;;;8.60;6.60;;;17.20;89.40;;;;;;5054076;28;20225;-58
2023/02/16 13:31:05;;;;;;;9.68;6.82;;;17.20;90.00;;;;;;5053908;28;20205;-57
2023/02/16 13:33:50;;;;;;;12.77;7.30;;;17.10;89.80;;;;;;5022764;28;20208;-58
2023/02/16 13:36:40;;;;;;;9.70;6.65;;;17.00;90.40;;;;;;5053915;28;20226;-57